Сочи

Карта отелей и гостиниц, располагающихся рядом с аэропортом Сочи :

Сочи Краснодарский край 43° 26' 40.2" N, 39° 56' 55.7412" E
Код аэродрома ИКАО
URSS
Код аэродрома RU
УРСС
Координаты
N43.44450° E039.94882°
Превышение над уровнем моря
27
Основная полоса
06/24
Курс магнитный
058,1/238,1
Длина основной ВПП
2950
Ширина основной ВПП
45
Покрытие основной ВПП
Твёрдое (цементобетон)
Освещение ВПП
Постоянное
Тип: 
Аэродром
Класс аэродрома: 
Международный
Принадлежность: 
ГА
Статус: 
Действующий
Сайт: 
http://www.basel.aero/sochi/
E-mail аэродрома: 
dis_p@sochi.ru
Страна: 
Россия
Регион: 
Краснодарский край
Дополнительная информация: 
Горный. Оператор: ОАО «Междунаро?дный аэропо?рт Со?чи». Входит в аэропортовый холдинг "Базэл Аэро". Совместного базирования. Федерального значения. Нкр.=(600)м. Военный индекс: XRSS / ЬРСС.
Погода: 

Авиационная погода в Сочи

Регион: 
Погода METAR: 
URSS 170300Z 15003MPS 100V190 9999 OVC008 17/15 Q1007 R02/010070 R06/010070 NOSIG RMK R06/15004MPS MT OBSC QFE754
Время наблюдения
2021-05-17T03:00:00Z
Температура C
17.0
Точка росы
15.0
Направление ветра
150
Скорость ветра (узлы)
6
Метео видимость
6.21
Явления погоды
Условия полета
IFR
Аэропорт подробнее: 

Найти трансфер

С помощью этой формы Вы можете найти трансфер из аэропорта Сочи в город, аэропорт или вокзал:

Карта места

Javascript is required to view this map.

Погода в аэропортах:

Авиационная погода в Якутске

Регион: 
Погода METAR: 
UEEE 170300Z 29008MPS 9999 -SHRA BKN024CB 03/02 Q0993 R23L/290153 NOSIG RMK QFE736
Время наблюдения
2021-05-17T03:00:00Z
Температура C
3.0
Точка росы
2.0
Направление ветра
290
Скорость ветра (узлы)
16
Метео видимость
6.21
Явления погоды
-SHRA
Условия полета
MVFR
Аэропорт подробнее: 

Авиационная погода в Борисполе

Регион: 
Погода METAR: 
UKBB 170300Z 36001MPS 9000 -SHRA SCT040CB 13/12 Q1005 R36R/290050 NOSIG
Время наблюдения
2021-05-17T03:00:00Z
Температура C
13.0
Точка росы
12.0
Направление ветра
360
Скорость ветра (узлы)
2
Метео видимость
5.59
Явления погоды
-SHRA
Условия полета
VFR
Аэропорт подробнее: 

Авиационная погода в Самсуне

Регион: 
Погода METAR: 
LTFH 170250Z 16004KT 9999 -SHRA SCT030 BKN100 14/12 Q1008 NOSIG
Время наблюдения
2021-05-17T02:50:00Z
Температура C
14.0
Точка росы
12.0
Направление ветра
160
Скорость ветра (узлы)
4
Метео видимость
6.21
Явления погоды
-SHRA
Условия полета
VFR

Авиационная погода в Вадсё

Регион: 
Погода METAR: 
ENVD 161750Z 10015KT 4000 BR BKN005 02/01 Q1012
Время наблюдения
2021-05-16T17:50:00Z
Температура C
2.0
Точка росы
1.0
Направление ветра
100
Скорость ветра (узлы)
15
Метео видимость
2.49
Явления погоды
BR
Условия полета
IFR